Time;durP1;ratioP1;P1;durP2;ratioP2;P2;SDS_P1;SDS_P2;PMS_P1;PMS_P2;Temp;Humidity;BMP_temperature;BMP_pressure;BME280_temperature;BME280_humidity;BME280_pressure;Samples;Min_cycle;Max_cycle;Signal;HPM_P1;HPM_P2
2022/10/12 00:01:47;;;;;;;;;4.00;4.00;;;;;;;;5092067;27;51163;-50
2022/10/12 00:04:32;;;;;;;;;5.00;4.00;;;;;;;;5086666;27;51186;-50
2022/10/12 00:07:17;;;;;;;;;4.75;3.00;;;;;;;;5089374;27;51157;-49
2022/10/12 00:10:02;;;;;;;;;5.50;3.50;;;;;;;;5102342;27;51079;-48
2022/10/12 00:12:46;;;;;;;;;0.00;0.00;;;;;;;;5096227;27;52455;-49
2022/10/12 00:15:30;;;;;;;;;5.00;5.00;;;;;;;;5085064;27;51442;-49
2022/10/12 00:18:15;;;;;;;;;4.00;2.00;;;;;;;;5096749;27;51194;-49
2022/10/12 00:21:03;;;;;;;;;4.00;2.50;;;;;;;;5081774;27;51178;-49
2022/10/12 00:23:48;;;;;;;;;3.75;2.00;;;;;;;;5084121;27;51485;-49
2022/10/12 00:26:32;;;;;;;;;2.00;1.75;;;;;;;;5096701;27;51371;-48
2022/10/12 00:29:17;;;;;;;;;3.75;2.00;;;;;;;;5099659;27;51025;-50
2022/10/12 00:32:01;;;;;;;;;2.50;2.25;;;;;;;;5100561;27;51130;-51
2022/10/12 00:34:46;;;;;;;;;2.00;2.00;;;;;;;;5080827;27;50998;-51
2022/10/12 00:37:30;;;;;;;;;3.00;3.00;;;;;;;;5094515;27;51082;-50
2022/10/12 00:40:14;;;;;;;;;5.50;2.75;;;;;;;;5100411;27;51227;-49
2022/10/12 00:42:59;;;;;;;;;5.50;3.50;;;;;;;;5101190;27;51084;-49
2022/10/12 00:45:43;;;;;;;;;7.25;3.75;;;;;;;;5100610;27;51371;-48
2022/10/12 00:48:28;;;;;;;;;4.25;4.00;;;;;;;;5080501;27;51491;-48
2022/10/12 00:51:13;;;;;;;;;2.00;2.00;;;;;;;;5091356;27;51119;-48
2022/10/12 00:54:01;;;;;;;;;2.25;2.25;;;;;;;;5080687;27;51104;-48
2022/10/12 00:56:46;;;;;;;;;6.75;4.00;;;;;;;;5092606;27;50976;-48
2022/10/12 00:59:32;;;;;;;;;6.75;4.50;;;;;;;;5098551;27;51419;-47
2022/10/12 01:02:18;;;;;;;;;4.00;3.00;;;;;;;;5083408;27;51097;-50
2022/10/12 01:05:02;;;;;;;;;3.25;3.25;;;;;;;;5085388;27;51306;-50
2022/10/12 01:07:47;;;;;;;;;5.00;4.00;;;;;;;;5088649;27;51184;-50
2022/10/12 01:10:31;;;;;;;;;6.25;3.00;;;;;;;;5087215;27;51330;-51
2022/10/12 01:13:16;;;;;;;;;6.50;3.25;;;;;;;;5095110;27;51550;-50
2022/10/12 01:16:12;;;;;;;;;6.75;4.00;;;;;;;;5095404;27;51172;-48
2022/10/12 01:19:12;;;;;;;;;5.25;3.00;;;;;;;;5080040;27;51150;-48
2022/10/12 01:22:00;;;;;;;;;4.25;4.00;;;;;;;;5086705;27;51046;-48
2022/10/12 01:24:52;;;;;;;;;4.50;4.25;;;;;;;;5094779;27;51310;-48
2022/10/12 01:27:36;;;;;;;;;7.00;4.50;;;;;;;;5083135;27;51067;-47
2022/10/12 01:30:25;;;;;;;;;8.00;4.00;;;;;;;;5083201;27;51363;-50
2022/10/12 01:33:16;;;;;;;;;5.50;4.00;;;;;;;;5097069;27;51275;-48
2022/10/12 01:36:06;;;;;;;;;3.00;3.00;;;;;;;;5094136;27;51107;-52
2022/10/12 01:38:50;;;;;;;;;3.75;3.75;;;;;;;;5079950;27;51184;-47
2022/10/12 01:41:49;;;;;;;;;7.25;4.00;;;;;;;;5092894;27;51224;-48
2022/10/12 01:44:34;;;;;;;;;5.00;3.00;;;;;;;;5080369;27;51083;-51
2022/10/12 01:47:18;;;;;;;;;4.25;4.25;;;;;;;;5095394;27;50991;-49
2022/10/12 01:50:04;;;;;;;;;3.00;3.00;;;;;;;;5099140;27;51401;-48
2022/10/12 01:52:49;;;;;;;;;6.00;4.25;;;;;;;;5089205;27;51130;-48
2022/10/12 01:55:53;;;;;;;;;5.50;4.00;;;;;;;;5096187;27;51239;-51
2022/10/12 01:58:50;;;;;;;;;3.00;3.00;;;;;;;;5088348;27;51160;-53
2022/10/12 02:01:34;;;;;;;;;5.00;3.75;;;;;;;;5079827;27;51141;-50
2022/10/12 02:04:48;;;;;;;;;4.00;4.00;;;;;;;;5079808;27;51457;-49
2022/10/12 02:07:41;;;;;;;;;3.75;3.50;;;;;;;;5085931;27;51525;-48
2022/10/12 02:10:48;;;;;;;;;6.00;3.00;;;;;;;;5091440;27;51180;-48
2022/10/12 02:13:34;;;;;;;;;5.50;4.25;;;;;;;;5082176;27;51600;-47
2022/10/12 02:16:20;;;;;;;;;5.25;3.25;;;;;;;;5086405;27;51405;-47
2022/10/12 02:19:06;;;;;;;;;5.25;3.50;;;;;;;;5096768;27;51145;-47
2022/10/12 02:21:53;;;;;;;;;3.00;3.00;;;;;;;;5082791;27;51899;-48
2022/10/12 02:24:39;;;;;;;;;9.00;4.00;;;;;;;;5079904;27;51126;-51
2022/10/12 02:27:24;;;;;;;;;5.50;4.25;;;;;;;;5080226;27;50972;-49
2022/10/12 02:30:09;;;;;;;;;5.00;5.00;;;;;;;;5093908;27;51090;-49
2022/10/12 02:32:58;;;;;;;;;8.00;6.25;;;;;;;;5079387;27;51534;-50
2022/10/12 02:35:50;;;;;;;;;5.00;5.00;;;;;;;;5092533;27;51767;-48
2022/10/12 02:38:38;;;;;;;;;9.75;5.50;;;;;;;;5095793;27;51052;-49
2022/10/12 02:41:27;;;;;;;;;4.25;4.25;;;;;;;;5095112;27;51439;-51
2022/10/12 02:44:14;;;;;;;;;7.00;4.00;;;;;;;;5082544;27;51200;-50
2022/10/12 02:46:59;;;;;;;;;8.50;7.75;;;;;;;;5095086;27;51484;-47
2022/10/12 02:49:44;;;;;;;;;8.00;6.00;;;;;;;;5095504;27;51329;-47
2022/10/12 02:52:30;;;;;;;;;4.50;3.25;;;;;;;;5087521;27;51033;-49
2022/10/12 02:55:15;;;;;;;;;3.75;3.75;;;;;;;;5091043;27;51470;-48
2022/10/12 02:57:59;;;;;;;;;4.25;4.25;;;;;;;;5098009;27;51572;-48
2022/10/12 03:00:44;;;;;;;;;6.00;6.00;;;;;;;;5097731;27;51620;-49
2022/10/12 03:03:28;;;;;;;;;4.75;4.00;;;;;;;;5093601;27;51125;-51
2022/10/12 03:06:12;;;;;;;;;3.75;3.50;;;;;;;;5097335;27;51466;-49
2022/10/12 03:08:57;;;;;;;;;5.75;3.75;;;;;;;;5098018;27;51028;-50
2022/10/12 03:11:44;;;;;;;;;6.00;3.50;;;;;;;;5095220;27;51140;-51
2022/10/12 03:14:28;;;;;;;;;7.00;7.00;;;;;;;;5091198;27;51328;-48
2022/10/12 03:17:12;;;;;;;;;3.50;3.50;;;;;;;;5100976;27;51215;-50
2022/10/12 03:19:57;;;;;;;;;6.75;4.50;;;;;;;;5099063;27;51472;-52
2022/10/12 03:22:41;;;;;;;;;2.75;2.00;;;;;;;;5083040;27;51454;-46
2022/10/12 03:25:26;;;;;;;;;6.25;2.00;;;;;;;;5097610;27;51131;-50
2022/10/12 03:28:11;;;;;;;;;1.50;1.00;;;;;;;;5086216;27;51777;-47
2022/10/12 03:30:55;;;;;;;;;5.00;3.75;;;;;;;;5090263;27;51061;-47
2022/10/12 03:33:40;;;;;;;;;4.50;4.50;;;;;;;;5082588;27;51143;-49
2022/10/12 03:36:24;;;;;;;;;4.00;4.00;;;;;;;;5087741;27;51437;-49
2022/10/12 03:39:09;;;;;;;;;7.00;6.00;;;;;;;;5100229;27;51279;-48
2022/10/12 03:41:54;;;;;;;;;6.75;6.25;;;;;;;;5100162;27;51095;-50
2022/10/12 03:44:38;;;;;;;;;7.50;6.75;;;;;;;;5096563;27;51110;-53
2022/10/12 03:47:23;;;;;;;;;5.00;5.00;;;;;;;;5094509;27;51397;-48
2022/10/12 03:50:07;;;;;;;;;7.50;7.00;;;;;;;;5082657;27;51154;-48
2022/10/12 03:52:51;;;;;;;;;11.00;11.00;;;;;;;;5089910;27;51156;-47
2022/10/12 03:55:36;;;;;;;;;10.50;8.25;;;;;;;;5096940;27;51010;-48
2022/10/12 03:58:20;;;;;;;;;10.25;7.00;;;;;;;;5091730;27;51014;-52
2022/10/12 04:01:05;;;;;;;;;11.25;9.75;;;;;;;;5098601;27;51434;-48
2022/10/12 04:03:49;;;;;;;;;13.75;10.75;;;;;;;;5096006;27;51116;-47
2022/10/12 04:06:34;;;;;;;;;13.00;12.50;;;;;;;;5101026;27;51150;-48
2022/10/12 04:09:18;;;;;;;;;17.00;11.25;;;;;;;;5102540;27;51046;-48
2022/10/12 04:12:03;;;;;;;;;13.50;11.00;;;;;;;;5086789;27;51127;-49
2022/10/12 04:14:47;;;;;;;;;10.00;8.25;;;;;;;;5094715;27;51137;-48
2022/10/12 04:17:32;;;;;;;;;12.75;9.50;;;;;;;;5100453;27;51061;-48
2022/10/12 04:20:16;;;;;;;;;14.75;12.75;;;;;;;;5084721;27;51057;-49
2022/10/12 04:23:00;;;;;;;;;13.25;12.00;;;;;;;;5083918;27;51197;-47
2022/10/12 04:25:45;;;;;;;;;13.00;12.00;;;;;;;;5088503;27;51451;-47
2022/10/12 04:28:30;;;;;;;;;15.75;12.00;;;;;;;;5100284;27;51267;-47
2022/10/12 04:31:14;;;;;;;;;7.50;4.50;;;;;;;;5094885;27;51146;-47
2022/10/12 04:33:58;;;;;;;;;12.00;12.00;;;;;;;;5091804;27;51481;-46
2022/10/12 04:36:43;;;;;;;;;16.25;14.75;;;;;;;;5087461;27;51374;-47
2022/10/12 04:39:27;;;;;;;;;18.00;15.00;;;;;;;;5099091;27;51601;-48
2022/10/12 04:42:12;;;;;;;;;17.75;15.50;;;;;;;;5100469;27;51232;-48
2022/10/12 04:44:56;;;;;;;;;15.00;13.25;;;;;;;;5092860;27;51198;-47
2022/10/12 04:47:40;;;;;;;;;15.25;13.50;;;;;;;;5095000;27;51137;-46
2022/10/12 04:50:24;;;;;;;;;19.00;17.00;;;;;;;;5083082;27;51073;-47
2022/10/12 04:53:09;;;;;;;;;18.75;14.25;;;;;;;;5097807;27;51538;-47
2022/10/12 04:55:53;;;;;;;;;19.00;17.25;;;;;;;;5100538;27;51110;-47
2022/10/12 04:58:38;;;;;;;;;17.50;17.50;;;;;;;;5101768;27;51330;-47
2022/10/12 05:01:22;;;;;;;;;18.00;15.25;;;;;;;;5092225;27;51553;-46
2022/10/12 05:04:07;;;;;;;;;17.75;17.25;;;;;;;;5097791;27;51073;-48
2022/10/12 05:06:51;;;;;;;;;21.00;17.00;;;;;;;;5096473;27;51500;-48
2022/10/12 05:09:35;;;;;;;;;18.00;17.25;;;;;;;;5083756;27;51200;-47
2022/10/12 05:12:20;;;;;;;;;21.75;17.00;;;;;;;;5098606;27;51163;-48
2022/10/12 05:15:05;;;;;;;;;20.25;17.75;;;;;;;;5083239;27;51336;-48
2022/10/12 05:17:50;;;;;;;;;26.00;22.25;;;;;;;;5085087;27;51054;-47
2022/10/12 05:20:34;;;;;;;;;23.75;20.00;;;;;;;;5096923;27;51351;-47
2022/10/12 05:23:18;;;;;;;;;22.25;19.75;;;;;;;;5081125;27;51161;-49
2022/10/12 05:26:03;;;;;;;;;23.75;21.25;;;;;;;;5095425;27;51406;-48
2022/10/12 05:28:47;;;;;;;;;24.75;22.50;;;;;;;;5090303;27;51113;-47
2022/10/12 05:31:32;;;;;;;;;27.00;24.25;;;;;;;;5075861;27;51138;-48
2022/10/12 05:34:16;;;;;;;;;24.50;18.50;;;;;;;;5079654;27;51453;-47
2022/10/12 05:37:00;;;;;;;;;24.25;19.25;;;;;;;;5083739;27;51140;-47
2022/10/12 05:39:45;;;;;;;;;20.75;20.75;;;;;;;;5086669;27;51434;-47
2022/10/12 05:42:29;;;;;;;;;21.00;19.50;;;;;;;;5081816;27;51284;-47
2022/10/12 05:45:14;;;;;;;;;21.75;19.75;;;;;;;;5085623;27;51152;-57
2022/10/12 05:47:58;;;;;;;;;26.50;23.25;;;;;;;;5081199;27;51542;-57
2022/10/12 05:50:42;;;;;;;;;30.50;26.50;;;;;;;;5083116;27;51570;-58
2022/10/12 05:53:27;;;;;;;;;42.00;31.25;;;;;;;;5079242;27;51066;-56
2022/10/12 05:56:11;;;;;;;;;36.00;31.50;;;;;;;;5084141;27;51015;-57
2022/10/12 05:58:56;;;;;;;;;36.00;30.00;;;;;;;;5099885;27;51450;-58
2022/10/12 06:01:40;;;;;;;;;34.25;28.00;;;;;;;;5100130;27;51093;-57
2022/10/12 06:04:24;;;;;;;;;30.75;28.75;;;;;;;;5099633;27;51090;-57
2022/10/12 06:07:09;;;;;;;;;32.00;29.50;;;;;;;;5096072;27;51701;-58
2022/10/12 06:09:53;;;;;;;;;38.00;31.25;;;;;;;;5100375;27;51098;-58
2022/10/12 06:12:38;;;;;;;;;40.50;32.00;;;;;;;;5098070;27;51043;-57
2022/10/12 06:15:22;;;;;;;;;35.50;31.00;;;;;;;;5091433;27;51426;-57
2022/10/12 06:18:06;;;;;;;;;46.25;36.00;;;;;;;;5094454;27;51171;-56
2022/10/12 06:20:52;;;;;;;;;37.25;32.50;;;;;;;;5064887;27;51647;-58
2022/10/12 06:23:36;;;;;;;;;40.25;33.00;;;;;;;;5099498;27;51140;-58
2022/10/12 06:26:20;;;;;;;;;33.75;28.25;;;;;;;;5078757;27;52136;-58
2022/10/12 06:29:05;;;;;;;;;31.25;25.00;;;;;;;;5079570;27;51511;-58
2022/10/12 06:31:50;;;;;;;;;29.50;27.50;;;;;;;;5098290;27;51132;-56
2022/10/12 06:34:34;;;;;;;;;32.25;27.00;;;;;;;;5100108;27;51310;-58
2022/10/12 06:37:19;;;;;;;;;30.50;25.75;;;;;;;;5099855;27;51188;-58
2022/10/12 06:40:04;;;;;;;;;28.75;25.00;;;;;;;;5100000;27;51099;-57
2022/10/12 06:42:49;;;;;;;;;28.75;25.50;;;;;;;;5084754;27;51114;-58
2022/10/12 06:45:33;;;;;;;;;30.75;26.00;;;;;;;;5100897;27;51063;-58
2022/10/12 06:48:18;;;;;;;;;30.25;24.75;;;;;;;;5088819;27;51121;-58
2022/10/12 06:51:03;;;;;;;;;32.75;28.75;;;;;;;;5083615;27;51082;-58
2022/10/12 06:53:46;;;;;;;;;27.75;24.00;;;;;;;;5103381;27;51084;-57
2022/10/12 06:56:32;;;;;;;;;29.25;26.75;;;;;;;;5091679;27;51209;-57
2022/10/12 06:59:18;;;;;;;;;34.50;31.75;;;;;;;;5068275;27;51241;-57
2022/10/12 07:02:02;;;;;;;;;24.50;20.00;;;;;;;;5083395;27;51139;-58
2022/10/12 07:04:50;;;;;;;;;26.50;23.25;;;;;;;;5090197;27;51390;-57
2022/10/12 07:07:35;;;;;;;;;27.50;22.25;;;;;;;;5094594;27;51050;-58
2022/10/12 07:10:19;;;;;;;;;26.00;25.00;;;;;;;;5103970;27;51197;-58
2022/10/12 07:13:04;;;;;;;;;32.50;22.50;;;;;;;;5103493;27;51560;-58
2022/10/12 07:15:49;;;;;;;;;24.50;19.75;;;;;;;;5103293;27;51227;-58
2022/10/12 07:18:33;;;;;;;;;20.25;19.75;;;;;;;;5097812;27;51128;-57
2022/10/12 07:21:18;;;;;;;;;24.75;19.75;;;;;;;;5093342;27;51163;-57
2022/10/12 07:24:02;;;;;;;;;24.25;23.25;;;;;;;;5085188;27;51087;-58
2022/10/12 07:26:48;;;;;;;;;26.25;22.75;;;;;;;;5082183;27;51191;-57
2022/10/12 07:29:33;;;;;;;;;21.00;20.50;;;;;;;;5082107;27;51100;-57
2022/10/12 07:32:17;;;;;;;;;22.50;20.50;;;;;;;;5093506;27;51188;-58
2022/10/12 07:35:02;;;;;;;;;25.50;24.75;;;;;;;;5084222;27;51074;-57
2022/10/12 07:37:47;;;;;;;;;24.25;19.00;;;;;;;;5083496;27;51130;-58
2022/10/12 07:40:32;;;;;;;;;22.00;18.75;;;;;;;;5102501;27;51122;-58
2022/10/12 07:43:16;;;;;;;;;21.75;20.75;;;;;;;;5100170;27;51603;-57
2022/10/12 07:46:03;;;;;;;;;24.25;19.75;;;;;;;;5073995;27;51024;-56
2022/10/12 07:48:47;;;;;;;;;22.25;20.00;;;;;;;;5086569;27;51485;-58
2022/10/12 07:51:31;;;;;;;;;19.00;18.50;;;;;;;;5081885;27;51181;-57
2022/10/12 07:54:16;;;;;;;;;18.50;18.00;;;;;;;;5067203;27;51135;-58
2022/10/12 07:57:00;;;;;;;;;20.00;18.75;;;;;;;;5090297;27;51113;-58
2022/10/12 07:59:45;;;;;;;;;16.25;12.00;;;;;;;;5082343;27;51224;-58
2022/10/12 08:02:29;;;;;;;;;17.75;15.00;;;;;;;;5085796;27;51118;-57
2022/10/12 08:05:14;;;;;;;;;18.75;18.25;;;;;;;;5102142;27;51550;-58
2022/10/12 08:07:59;;;;;;;;;13.75;13.75;;;;;;;;5102165;27;51333;-58
2022/10/12 08:10:43;;;;;;;;;16.25;14.50;;;;;;;;5084984;27;51073;-59
2022/10/12 08:13:28;;;;;;;;;11.75;11.25;;;;;;;;5100181;27;51170;-58
2022/10/12 08:16:14;;;;;;;;;16.50;13.75;;;;;;;;5101681;27;51091;-58
2022/10/12 08:18:59;;;;;;;;;13.00;11.25;;;;;;;;5101909;27;51064;-58
2022/10/12 08:21:43;;;;;;;;;7.50;7.50;;;;;;;;5096180;27;51267;-58
2022/10/12 08:24:27;;;;;;;;;8.75;8.00;;;;;;;;5099154;27;51135;-58
2022/10/12 08:27:12;;;;;;;;;7.75;7.75;;;;;;;;5098070;27;51518;-58
2022/10/12 08:29:57;;;;;;;;;10.75;8.25;;;;;;;;5097871;27;51168;-58
2022/10/12 08:32:42;;;;;;;;;10.75;7.75;;;;;;;;5067245;27;51214;-57
2022/10/12 08:35:26;;;;;;;;;13.00;10.25;;;;;;;;5065721;27;51042;-59
2022/10/12 08:38:11;;;;;;;;;10.25;8.75;;;;;;;;5082138;27;51291;-58
2022/10/12 08:41:14;;;;;;;;;11.75;9.75;;;;;;;;5104652;27;51600;-58
2022/10/12 08:44:11;;;;;;;;;11.00;9.00;;;;;;;;5106474;27;50632;-57
2022/10/12 08:46:58;;;;;;;;;10.00;8.75;;;;;;;;5085920;27;51204;-57
2022/10/12 08:49:43;;;;;;;;;5.75;4.75;;;;;;;;5088008;27;51157;-57
2022/10/12 08:52:53;;;;;;;;;12.00;10.00;;;;;;;;5080333;27;51476;-57
2022/10/12 08:55:41;;;;;;;;;8.25;8.25;;;;;;;;5099567;27;51349;-58
2022/10/12 08:58:29;;;;;;;;;11.25;10.75;;;;;;;;5101711;27;51464;-57
2022/10/12 09:01:14;;;;;;;;;13.25;11.75;;;;;;;;5101561;27;51132;-58
2022/10/12 09:04:01;;;;;;;;;18.00;15.00;;;;;;;;5100960;27;51148;-58
2022/10/12 09:07:00;;;;;;;;;17.25;17.25;;;;;;;;5101077;27;51084;-58
2022/10/12 09:10:03;;;;;;;;;15.75;12.50;;;;;;;;5101204;27;51450;-57
2022/10/12 09:13:00;;;;;;;;;13.00;12.75;;;;;;;;5101097;27;51116;-57
2022/10/12 09:16:04;;;;;;;;;18.50;15.50;;;;;;;;5100695;27;51033;-57
2022/10/12 09:18:56;;;;;;;;;19.00;15.00;;;;;;;;5092777;27;51603;-57
2022/10/12 09:21:41;;;;;;;;;17.50;15.25;;;;;;;;5101469;27;51138;-58
2022/10/12 09:24:27;;;;;;;;;10.25;9.75;;;;;;;;5085065;27;51083;-56
2022/10/12 09:27:16;;;;;;;;;18.50;15.75;;;;;;;;5100761;27;51209;-56
2022/10/12 09:30:02;;;;;;;;;15.25;15.25;;;;;;;;5093015;27;51361;-55
2022/10/12 09:33:04;;;;;;;;;17.50;13.25;;;;;;;;5082877;27;51175;-56
2022/10/12 09:35:49;;;;;;;;;15.00;12.00;;;;;;;;5084551;27;51603;-56
2022/10/12 09:38:37;;;;;;;;;13.25;12.50;;;;;;;;5100287;27;51077;-56
2022/10/12 09:41:54;;;;;;;;;12.75;9.75;;;;;;;;5099028;27;51784;-55
2022/10/12 09:44:49;;;;;;;;;15.00;10.75;;;;;;;;5056630;27;51566;-56
2022/10/12 09:47:33;;;;;;;;;18.50;14.00;;;;;;;;5099947;27;51106;-55
2022/10/12 09:50:36;;;;;;;;;19.50;12.75;;;;;;;;5100369;27;51525;-55
2022/10/12 09:53:21;;;;;;;;;10.75;10.75;;;;;;;;5100116;27;51187;-54
2022/10/12 09:56:07;;;;;;;;;10.50;8.00;;;;;;;;5083300;27;51497;-56
2022/10/12 09:59:00;;;;;;;;;13.25;12.50;;;;;;;;5094370;27;51075;-56
2022/10/12 10:01:57;;;;;;;;;15.25;13.25;;;;;;;;5099661;27;51427;-55
2022/10/12 10:04:42;;;;;;;;;9.00;9.00;;;;;;;;5084399;27;51128;-56
2022/10/12 10:07:34;;;;;;;;;11.50;9.50;;;;;;;;5100231;27;51025;-55
2022/10/12 10:10:23;;;;;;;;;10.50;10.50;;;;;;;;5100013;27;51113;-56
2022/10/12 10:13:14;;;;;;;;;12.25;10.50;;;;;;;;5099754;27;51076;-57
2022/10/12 10:16:05;;;;;;;;;9.25;7.25;;;;;;;;5083696;27;51217;-56
2022/10/12 10:18:53;;;;;;;;;10.50;8.75;;;;;;;;5092475;27;51086;-55
2022/10/12 10:21:38;;;;;;;;;12.25;8.75;;;;;;;;5085387;27;51159;-57
2022/10/12 10:24:23;;;;;;;;;8.25;8.25;;;;;;;;5078626;27;51239;-57
2022/10/12 10:27:25;;;;;;;;;9.25;7.25;;;;;;;;5077944;27;51165;-56
2022/10/12 10:30:21;;;;;;;;;13.25;9.00;;;;;;;;5094611;27;51148;-55
2022/10/12 10:33:07;;;;;;;;;11.75;11.75;;;;;;;;5100079;27;51004;-56
2022/10/12 10:36:01;;;;;;;;;17.50;14.25;;;;;;;;5098770;27;51909;-56
2022/10/12 10:38:46;;;;;;;;;17.75;17.00;;;;;;;;5099610;27;51023;-54
2022/10/12 10:41:41;;;;;;;;;16.00;11.75;;;;;;;;5099617;27;51087;-56
2022/10/12 10:44:28;;;;;;;;;12.50;11.00;;;;;;;;5086374;27;51199;-57
2022/10/12 10:47:12;;;;;;;;;7.50;7.50;;;;;;;;5097594;27;51082;-56
2022/10/12 10:49:59;;;;;;;;;9.25;9.25;;;;;;;;5099171;27;51073;-56
2022/10/12 10:52:53;;;;;;;;;11.50;11.00;;;;;;;;5099527;27;51113;-55
2022/10/12 10:55:40;;;;;;;;;13.25;10.25;;;;;;;;5087792;27;51067;-56
2022/10/12 10:58:34;;;;;;;;;13.25;10.75;;;;;;;;5080710;27;51125;-56
2022/10/12 11:01:37;;;;;;;;;12.75;11.25;;;;;;;;5086809;27;51086;-57
2022/10/12 11:04:29;;;;;;;;;13.00;11.50;;;;;;;;5078992;27;51054;-57
2022/10/12 11:07:26;;;;;;;;;10.75;10.50;;;;;;;;5095615;27;51252;-57
2022/10/12 11:10:31;;;;;;;;;8.75;8.00;;;;;;;;5096784;27;51136;-57
2022/10/12 11:13:30;;;;;;;;;11.00;8.50;;;;;;;;5078968;27;51999;-57
2022/10/12 11:16:14;;;;;;;;;14.50;11.75;;;;;;;;5092940;27;51195;-57
2022/10/12 11:19:01;;;;;;;;;12.00;11.25;;;;;;;;5087963;27;51328;-56
2022/10/12 11:21:51;;;;;;;;;18.00;14.00;;;;;;;;5096144;27;51183;-57
2022/10/12 11:24:41;;;;;;;;;14.75;10.25;;;;;;;;5099470;27;51021;-57
2022/10/12 11:27:25;;;;;;;;;13.75;12.00;;;;;;;;5098765;27;51015;-57
2022/10/12 11:30:14;;;;;;;;;10.00;8.50;;;;;;;;5099079;27;51140;-56
2022/10/12 11:33:02;;;;;;;;;11.75;11.75;;;;;;;;5100880;27;51049;-57
2022/10/12 11:35:46;;;;;;;;;11.75;9.50;;;;;;;;5102981;27;51073;-57
2022/10/12 11:38:34;;;;;;;;;9.50;9.50;;;;;;;;5102505;27;51588;-57
2022/10/12 11:41:20;;;;;;;;;11.25;9.00;;;;;;;;5102837;27;51140;-56
2022/10/12 11:44:10;;;;;;;;;14.50;12.25;;;;;;;;5103079;27;51084;-55
2022/10/12 11:46:58;;;;;;;;;10.25;10.25;;;;;;;;5102455;27;51018;-56
2022/10/12 11:50:00;;;;;;;;;8.25;8.25;;;;;;;;5103093;27;51140;-57
2022/10/12 11:52:47;;;;;;;;;10.25;9.75;;;;;;;;5102586;27;51501;-57
2022/10/12 11:55:49;;;;;;;;;5.50;4.75;;;;;;;;5102160;27;51039;-57
2022/10/12 11:58:39;;;;;;;;;7.00;7.00;;;;;;;;5100508;27;51115;-57
2022/10/12 12:01:31;;;;;;;;;12.25;10.75;;;;;;;;5104173;27;51090;-57
2022/10/12 12:04:24;;;;;;;;;9.25;9.25;;;;;;;;5086853;27;51425;-57
2022/10/12 12:07:28;;;;;;;;;7.50;3.50;;;;;;;;5102037;27;51129;-56
2022/10/12 12:10:24;;;;;;;;;11.75;7.75;;;;;;;;5102530;27;51154;-55
2022/10/12 12:13:18;;;;;;;;;10.25;7.75;;;;;;;;5089986;27;51814;-57
2022/10/12 12:16:11;;;;;;;;;12.75;7.50;;;;;;;;5064291;27;51235;-56
2022/10/12 12:19:16;;;;;;;;;8.00;7.25;;;;;;;;5038814;28;51320;-57
2022/10/12 12:22:09;;;;;;;;;9.50;8.25;;;;;;;;5039153;28;51423;-57
2022/10/12 12:25:09;;;;;;;;;9.50;8.00;;;;;;;;5045025;28;51201;-58
2022/10/12 12:27:56;;;;;;;;;9.75;7.00;;;;;;;;5057712;28;51493;-57
2022/10/12 12:30:40;;;;;;;;;11.25;7.00;;;;;;;;5059968;28;51496;-57
2022/10/12 12:33:27;;;;;;;;;8.00;7.50;;;;;;;;5054374;28;51232;-56
2022/10/12 12:36:26;;;;;;;;;9.75;8.50;;;;;;;;5039623;28;51254;-57
2022/10/12 12:39:20;;;;;;;;;11.25;8.00;;;;;;;;5058149;28;51117;-57
2022/10/12 12:42:06;;;;;;;;;11.00;7.50;;;;;;;;5058866;28;51136;-56
2022/10/12 12:44:50;;;;;;;;;10.50;8.50;;;;;;;;5058985;28;51524;-58
2022/10/12 12:47:36;;;;;;;;;11.25;8.25;;;;;;;;5060160;28;51467;-57
2022/10/12 12:50:30;;;;;;;;;9.25;7.50;;;;;;;;5056500;28;51367;-57
2022/10/12 12:53:17;;;;;;;;;8.25;7.25;;;;;;;;5060782;28;51173;-57
2022/10/12 12:56:05;;;;;;;;;6.50;5.00;;;;;;;;5060859;28;51169;-58
2022/10/12 12:58:54;;;;;;;;;8.25;8.25;;;;;;;;5060740;28;51126;-57
2022/10/12 13:01:57;;;;;;;;;11.25;9.25;;;;;;;;5044773;28;51400;-57
2022/10/12 13:04:56;;;;;;;;;9.25;8.00;;;;;;;;5059767;28;51136;-57
2022/10/12 13:07:53;;;;;;;;;11.00;9.75;;;;;;;;5060097;28;51130;-57
2022/10/12 13:10:58;;;;;;;;;4.50;4.25;;;;;;;;5060376;28;51380;-55
2022/10/12 13:14:01;;;;;;;;;6.50;5.50;;;;;;;;5060105;28;51079;-57
2022/10/12 13:16:45;;;;;;;;;5.75;5.00;;;;;;;;5086241;27;51590;-54
2022/10/12 13:19:32;;;;;;;;;4.00;4.00;;;;;;;;5081106;27;51206;-57
2022/10/12 13:22:34;;;;;;;;;6.25;5.00;;;;;;;;5076564;27;51164;-55
2022/10/12 13:25:37;;;;;;;;;4.50;3.25;;;;;;;;5098606;27;51077;-57
2022/10/12 13:28:24;;;;;;;;;5.75;1.50;;;;;;;;5099579;27;51388;-57
2022/10/12 13:31:14;;;;;;;;;9.00;4.50;;;;;;;;5100238;27;51084;-57
2022/10/12 13:34:02;;;;;;;;;7.25;7.00;;;;;;;;5090931;27;51075;-57
2022/10/12 13:37:08;;;;;;;;;5.75;5.00;;;;;;;;5078865;27;51525;-58
2022/10/12 13:39:55;;;;;;;;;9.50;4.50;;;;;;;;5079785;27;51429;-58
2022/10/12 13:42:38;;;;;;;;;4.75;4.75;;;;;;;;5099693;27;51321;-57
2022/10/12 13:45:23;;;;;;;;;2.25;2.25;;;;;;;;5100853;27;51082;-57
2022/10/12 13:48:15;;;;;;;;;4.00;3.00;;;;;;;;5099736;27;51163;-57
2022/10/12 13:51:01;;;;;;;;;3.75;2.50;;;;;;;;5100200;27;51530;-55
2022/10/12 13:53:45;;;;;;;;;3.75;3.75;;;;;;;;5097614;27;51168;-57
2022/10/12 13:56:29;;;;;;;;;3.75;3.00;;;;;;;;5097391;27;51239;-56
2022/10/12 13:59:17;;;;;;;;;3.25;3.25;;;;;;;;5098926;27;51027;-56
2022/10/12 14:02:02;;;;;;;;;5.00;3.25;;;;;;;;5098745;27;51444;-56
2022/10/12 14:04:46;;;;;;;;;5.50;3.75;;;;;;;;5100080;27;51320;-56
2022/10/12 14:07:33;;;;;;;;;4.00;2.00;;;;;;;;5095209;27;51323;-55
2022/10/12 14:10:17;;;;;;;;;3.75;3.75;;;;;;;;5084202;27;51039;-57
2022/10/12 14:13:03;;;;;;;;;2.75;2.50;;;;;;;;5099792;27;51469;-56
2022/10/12 14:15:48;;;;;;;;;4.00;1.50;;;;;;;;5099355;27;51066;-56
2022/10/12 14:18:36;;;;;;;;;2.00;2.00;;;;;;;;5081232;27;51085;-56
2022/10/12 14:21:25;;;;;;;;;4.25;2.75;;;;;;;;5079053;27;51240;-56
2022/10/12 14:24:10;;;;;;;;;1.50;1.50;;;;;;;;5097745;27;51174;-56
2022/10/12 14:26:56;;;;;;;;;2.50;2.50;;;;;;;;5097862;27;51485;-56
2022/10/12 14:29:42;;;;;;;;;2.00;1.00;;;;;;;;5077492;27;51119;-57
2022/10/12 14:32:40;;;;;;;;;4.00;2.25;;;;;;;;5099469;27;51085;-57
2022/10/12 14:35:26;;;;;;;;;3.00;1.75;;;;;;;;5099767;27;51018;-56
2022/10/12 14:38:30;;;;;;;;;1.50;0.50;;;;;;;;5097328;27;51247;-56
2022/10/12 14:41:35;;;;;;;;;0.00;0.00;;;;;;;;5095364;27;51172;-57
2022/10/12 14:44:20;;;;;;;;;2.25;2.25;;;;;;;;5098764;27;51473;-57
2022/10/12 14:47:09;;;;;;;;;1.00;0.75;;;;;;;;5098790;27;51163;-57
2022/10/12 14:49:55;;;;;;;;;0.00;0.00;;;;;;;;5086086;27;51226;-56
2022/10/12 14:52:44;;;;;;;;;3.25;1.00;;;;;;;;5091872;27;52112;-56
2022/10/12 14:55:29;;;;;;;;;3.00;2.00;;;;;;;;5081392;27;51243;-56
2022/10/12 14:58:15;;;;;;;;;2.00;1.00;;;;;;;;5087888;27;51408;-56
2022/10/12 15:00:59;;;;;;;;;1.75;1.50;;;;;;;;5082595;27;51184;-56
2022/10/12 15:03:44;;;;;;;;;1.25;0.00;;;;;;;;5078203;27;51370;-57
2022/10/12 15:06:28;;;;;;;;;3.50;2.50;;;;;;;;5097423;27;51210;-57
2022/10/12 15:09:12;;;;;;;;;1.25;1.25;;;;;;;;5101371;27;51444;-57
2022/10/12 15:11:57;;;;;;;;;1.75;1.75;;;;;;;;5102397;27;51087;-56
2022/10/12 15:14:41;;;;;;;;;2.75;1.00;;;;;;;;5102994;27;51124;-56
2022/10/12 15:17:26;;;;;;;;;2.75;2.25;;;;;;;;5102770;27;51567;-57
2022/10/12 15:20:11;;;;;;;;;3.25;1.50;;;;;;;;5102584;27;51366;-57
2022/10/12 15:22:56;;;;;;;;;1.00;1.00;;;;;;;;5101996;27;51287;-57
2022/10/12 15:25:44;;;;;;;;;4.00;2.50;;;;;;;;5100096;27;51115;-56
2022/10/12 15:28:28;;;;;;;;;4.00;3.50;;;;;;;;5081980;27;51549;-57
2022/10/12 15:31:14;;;;;;;;;1.00;1.00;;;;;;;;5081367;27;51404;-57
2022/10/12 15:33:59;;;;;;;;;2.00;2.00;;;;;;;;5102706;27;51455;-57
2022/10/12 15:36:43;;;;;;;;;7.25;6.00;;;;;;;;5102495;27;51582;-57
2022/10/12 15:39:27;;;;;;;;;11.00;7.00;;;;;;;;5103035;27;51170;-57
2022/10/12 15:42:14;;;;;;;;;6.00;6.00;;;;;;;;5102595;27;51045;-57
2022/10/12 15:44:58;;;;;;;;;4.00;4.00;;;;;;;;5103035;27;51445;-57
2022/10/12 15:47:44;;;;;;;;;4.00;3.00;;;;;;;;5102130;27;51104;-57
2022/10/12 15:50:33;;;;;;;;;1.00;1.00;;;;;;;;5102517;27;51139;-57
2022/10/12 15:53:25;;;;;;;;;2.00;2.00;;;;;;;;5102022;27;51088;-56
2022/10/12 15:56:14;;;;;;;;;1.75;1.50;;;;;;;;5101952;27;51400;-57
2022/10/12 15:58:58;;;;;;;;;2.00;2.00;;;;;;;;5102537;27;51031;-56
2022/10/12 16:01:43;;;;;;;;;2.75;2.75;;;;;;;;5096468;27;51421;-57
2022/10/12 16:04:28;;;;;;;;;3.50;2.00;;;;;;;;5102731;27;51041;-56
2022/10/12 16:07:12;;;;;;;;;4.00;4.00;;;;;;;;5101116;27;51575;-57
2022/10/12 16:09:56;;;;;;;;;2.75;2.75;;;;;;;;5096767;27;51140;-57
2022/10/12 16:12:42;;;;;;;;;5.50;5.50;;;;;;;;5102095;27;51163;-56
2022/10/12 16:15:28;;;;;;;;;6.50;5.25;;;;;;;;5102343;27;51082;-57
2022/10/12 16:18:15;;;;;;;;;6.50;3.75;;;;;;;;5100813;27;51625;-57
2022/10/12 16:20:59;;;;;;;;;4.50;4.50;;;;;;;;5101542;27;51559;-57
2022/10/12 16:23:43;;;;;;;;;3.75;3.00;;;;;;;;5102306;27;50986;-57
2022/10/12 16:26:28;;;;;;;;;4.00;4.00;;;;;;;;5089078;27;51101;-57
2022/10/12 16:29:12;;;;;;;;;7.75;6.50;;;;;;;;5096510;27;51202;-56
2022/10/12 16:31:56;;;;;;;;;8.50;6.75;;;;;;;;5081018;27;51362;-57